sensor_id;sensor_type;location;lat;lon;timestamp;pressure;altitude;pressure_sealevel;temperature;humidity
23363;BME280;11853;48.080;11.960;2023-02-04T00:00:05;95544.63;;;5.19;100.00
23363;BME280;11853;48.080;11.960;2023-02-04T00:02:32;95538.59;;;5.17;100.00
23363;BME280;11853;48.080;11.960;2023-02-04T00:05:01;95540.63;;;5.14;100.00
23363;BME280;11853;48.080;11.960;2023-02-04T00:07:34;95536.94;;;5.04;100.00
23363;BME280;11853;48.080;11.960;2023-02-04T00:10:00;95565.66;;;5.07;100.00
23363;BME280;11853;48.080;11.960;2023-02-04T00:12:26;95546.72;;;5.14;100.00
23363;BME280;11853;48.080;11.960;2023-02-04T00:14:52;95551.88;;;5.16;100.00
23363;BME280;11853;48.080;11.960;2023-02-04T00:17:18;95543.88;;;5.17;100.00
23363;BME280;11853;48.080;11.960;2023-02-04T00:19:43;95569.25;;;5.18;100.00
23363;BME280;11853;48.080;11.960;2023-02-04T00:22:09;95563.03;;;5.19;100.00
23363;BME280;11853;48.080;11.960;2023-02-04T00:24:35;95572.16;;;5.14;100.00
23363;BME280;11853;48.080;11.960;2023-02-04T00:27:02;95584.13;;;5.05;100.00
23363;BME280;11853;48.080;11.960;2023-02-04T00:29:28;95583.72;;;5.11;100.00
23363;BME280;11853;48.080;11.960;2023-02-04T00:31:54;95599.97;;;5.18;100.00
23363;BME280;11853;48.080;11.960;2023-02-04T00:34:20;95597.41;;;5.16;100.00
23363;BME280;11853;48.080;11.960;2023-02-04T00:36:46;95612.03;;;5.20;100.00
23363;BME280;11853;48.080;11.960;2023-02-04T00:39:11;95615.63;;;5.19;100.00
23363;BME280;11853;48.080;11.960;2023-02-04T00:41:37;95610.16;;;5.23;100.00
23363;BME280;11853;48.080;11.960;2023-02-04T00:44:03;95606.28;;;5.15;100.00
23363;BME280;11853;48.080;11.960;2023-02-04T00:46:29;95602.88;;;5.13;100.00
23363;BME280;11853;48.080;11.960;2023-02-04T00:48:54;95604.81;;;5.24;100.00
23363;BME280;11853;48.080;11.960;2023-02-04T00:51:20;95595.34;;;5.22;100.00
23363;BME280;11853;48.080;11.960;2023-02-04T00:53:46;95597.22;;;5.19;100.00
23363;BME280;11853;48.080;11.960;2023-02-04T00:56:11;95589.75;;;5.13;100.00
23363;BME280;11853;48.080;11.960;2023-02-04T00:58:37;95594.03;;;5.14;100.00
23363;BME280;11853;48.080;11.960;2023-02-04T01:01:03;95588.06;;;5.12;100.00
23363;BME280;11853;48.080;11.960;2023-02-04T01:03:29;95623.16;;;5.11;100.00
23363;BME280;11853;48.080;11.960;2023-02-04T01:05:54;95625.59;;;5.14;100.00
23363;BME280;11853;48.080;11.960;2023-02-04T01:08:20;95628.22;;;5.14;100.00
23363;BME280;11853;48.080;11.960;2023-02-04T01:10:46;95635.91;;;5.17;100.00
23363;BME280;11853;48.080;11.960;2023-02-04T01:13:11;95634.59;;;5.25;100.00
23363;BME280;11853;48.080;11.960;2023-02-04T01:15:37;95641.63;;;5.24;100.00
23363;BME280;11853;48.080;11.960;2023-02-04T01:18:06;95641.19;;;5.17;100.00
23363;BME280;11853;48.080;11.960;2023-02-04T01:20:32;95646.78;;;5.26;100.00
23363;BME280;11853;48.080;11.960;2023-02-04T01:22:57;95642.69;;;5.22;100.00
23363;BME280;11853;48.080;11.960;2023-02-04T01:25:23;95646.38;;;5.32;100.00
23363;BME280;11853;48.080;11.960;2023-02-04T01:27:49;95646.69;;;5.27;100.00
23363;BME280;11853;48.080;11.960;2023-02-04T01:30:14;95657.66;;;5.34;100.00
23363;BME280;11853;48.080;11.960;2023-02-04T01:32:40;95650.72;;;5.33;100.00
23363;BME280;11853;48.080;11.960;2023-02-04T01:35:06;95669.53;;;5.27;100.00
23363;BME280;11853;48.080;11.960;2023-02-04T01:37:32;95661.25;;;5.33;100.00
23363;BME280;11853;48.080;11.960;2023-02-04T01:39:58;95654.69;;;5.26;100.00
23363;BME280;11853;48.080;11.960;2023-02-04T01:42:24;95667.94;;;5.24;100.00
23363;BME280;11853;48.080;11.960;2023-02-04T01:44:50;95665.41;;;5.23;100.00
23363;BME280;11853;48.080;11.960;2023-02-04T01:47:16;95655.63;;;5.25;100.00
23363;BME280;11853;48.080;11.960;2023-02-04T01:49:42;95665.41;;;5.23;100.00
23363;BME280;11853;48.080;11.960;2023-02-04T01:52:09;95658.47;;;5.22;100.00
23363;BME280;11853;48.080;11.960;2023-02-04T01:54:35;95652.78;;;5.28;100.00
23363;BME280;11853;48.080;11.960;2023-02-04T01:57:02;95637.22;;;5.25;100.00
23363;BME280;11853;48.080;11.960;2023-02-04T01:59:28;95650.16;;;5.28;100.00
23363;BME280;11853;48.080;11.960;2023-02-04T02:01:54;95648.16;;;5.18;100.00
23363;BME280;11853;48.080;11.960;2023-02-04T02:04:31;95664.13;;;5.15;100.00
23363;BME280;11853;48.080;11.960;2023-02-04T02:07:00;95671.06;;;5.16;100.00
23363;BME280;11853;48.080;11.960;2023-02-04T02:09:28;95676.72;;;5.10;100.00
23363;BME280;11853;48.080;11.960;2023-02-04T02:11:56;95681.78;;;5.13;100.00
23363;BME280;11853;48.080;11.960;2023-02-04T02:14:22;95691.25;;;5.16;100.00
23363;BME280;11853;48.080;11.960;2023-02-04T02:16:48;95707.88;;;5.16;100.00
23363;BME280;11853;48.080;11.960;2023-02-04T02:19:24;95700.84;;;5.17;100.00
23363;BME280;11853;48.080;11.960;2023-02-04T02:22:10;95712.47;;;5.27;100.00
23363;BME280;11853;48.080;11.960;2023-02-04T02:24:38;95711.41;;;5.30;100.00
23363;BME280;11853;48.080;11.960;2023-02-04T02:27:07;95723.69;;;5.29;100.00
23363;BME280;11853;48.080;11.960;2023-02-04T02:29:34;95722.66;;;5.32;100.00
23363;BME280;11853;48.080;11.960;2023-02-04T02:32:00;95731.13;;;5.37;100.00
23363;BME280;11853;48.080;11.960;2023-02-04T02:34:27;95722.47;;;5.35;100.00
23363;BME280;11853;48.080;11.960;2023-02-04T02:36:54;95725.66;;;5.40;100.00
23363;BME280;11853;48.080;11.960;2023-02-04T02:39:21;95729.31;;;5.37;100.00
23363;BME280;11853;48.080;11.960;2023-02-04T02:41:47;95724.19;;;5.36;100.00
23363;BME280;11853;48.080;11.960;2023-02-04T02:44:14;95723.97;;;5.39;100.00
23363;BME280;11853;48.080;11.960;2023-02-04T02:46:41;95733.38;;;5.29;100.00
23363;BME280;11853;48.080;11.960;2023-02-04T02:49:12;95732.66;;;5.27;100.00
23363;BME280;11853;48.080;11.960;2023-02-04T02:51:40;95730.56;;;5.32;100.00
23363;BME280;11853;48.080;11.960;2023-02-04T02:54:27;95736.34;;;5.24;100.00
23363;BME280;11853;48.080;11.960;2023-02-04T02:56:54;95732.19;;;5.20;100.00
23363;BME280;11853;48.080;11.960;2023-02-04T02:59:21;95737.56;;;5.18;100.00
23363;BME280;11853;48.080;11.960;2023-02-04T03:01:58;95739.84;;;5.10;100.00
23363;BME280;11853;48.080;11.960;2023-02-04T03:04:25;95740.59;;;5.12;100.00
23363;BME280;11853;48.080;11.960;2023-02-04T03:06:53;95739.25;;;5.19;100.00
23363;BME280;11853;48.080;11.960;2023-02-04T03:09:21;95730.78;;;5.14;100.00
23363;BME280;11853;48.080;11.960;2023-02-04T03:11:47;95741.69;;;5.23;100.00
23363;BME280;11853;48.080;11.960;2023-02-04T03:14:13;95730.41;;;5.20;100.00
23363;BME280;11853;48.080;11.960;2023-02-04T03:16:39;95734.75;;;5.22;100.00
23363;BME280;11853;48.080;11.960;2023-02-04T03:19:06;95736.34;;;5.24;100.00
23363;BME280;11853;48.080;11.960;2023-02-04T03:21:33;95755.03;;;5.19;100.00
23363;BME280;11853;48.080;11.960;2023-02-04T03:23:59;95754.50;;;5.00;100.00
23363;BME280;11853;48.080;11.960;2023-02-04T03:26:25;95767.06;;;4.95;100.00
23363;BME280;11853;48.080;11.960;2023-02-04T03:28:54;95782.69;;;4.84;100.00
23363;BME280;11853;48.080;11.960;2023-02-04T03:31:20;95779.13;;;4.70;100.00
23363;BME280;11853;48.080;11.960;2023-02-04T03:33:45;95777.53;;;4.68;100.00
23363;BME280;11853;48.080;11.960;2023-02-04T03:36:11;95770.22;;;4.59;100.00
23363;BME280;11853;48.080;11.960;2023-02-04T03:38:37;95789.81;;;4.53;100.00
23363;BME280;11853;48.080;11.960;2023-02-04T03:41:03;95788.09;;;4.52;100.00
23363;BME280;11853;48.080;11.960;2023-02-04T03:43:28;95788.59;;;4.44;100.00
23363;BME280;11853;48.080;11.960;2023-02-04T03:45:54;95805.56;;;4.39;100.00
23363;BME280;11853;48.080;11.960;2023-02-04T03:48:20;95809.09;;;4.38;100.00
23363;BME280;11853;48.080;11.960;2023-02-04T03:50:45;95806.78;;;4.33;100.00
23363;BME280;11853;48.080;11.960;2023-02-04T03:53:11;95819.72;;;4.36;100.00
23363;BME280;11853;48.080;11.960;2023-02-04T03:55:37;95812.47;;;4.25;100.00
23363;BME280;11853;48.080;11.960;2023-02-04T03:58:03;95827.94;;;4.16;100.00
23363;BME280;11853;48.080;11.960;2023-02-04T04:00:29;95837.41;;;4.18;100.00
23363;BME280;11853;48.080;11.960;2023-02-04T04:02:57;95838.13;;;4.20;100.00
23363;BME280;11853;48.080;11.960;2023-02-04T04:05:23;95836.09;;;4.25;100.00
23363;BME280;11853;48.080;11.960;2023-02-04T04:07:49;95843.22;;;4.23;100.00
23363;BME280;11853;48.080;11.960;2023-02-04T04:10:15;95843.91;;;4.27;100.00
23363;BME280;11853;48.080;11.960;2023-02-04T04:12:41;95839.66;;;4.24;100.00
23363;BME280;11853;48.080;11.960;2023-02-04T04:15:07;95829.34;;;4.21;100.00
23363;BME280;11853;48.080;11.960;2023-02-04T04:17:34;95847.81;;;4.20;100.00
23363;BME280;11853;48.080;11.960;2023-02-04T04:19:59;95845.84;;;4.23;100.00
23363;BME280;11853;48.080;11.960;2023-02-04T04:22:25;95851.00;;;4.25;100.00
23363;BME280;11853;48.080;11.960;2023-02-04T04:24:51;95860.31;;;4.31;100.00
23363;BME280;11853;48.080;11.960;2023-02-04T04:27:16;95849.44;;;4.37;100.00
23363;BME280;11853;48.080;11.960;2023-02-04T04:29:42;95857.78;;;4.29;100.00
23363;BME280;11853;48.080;11.960;2023-02-04T04:32:08;95861.44;;;4.26;100.00
23363;BME280;11853;48.080;11.960;2023-02-04T04:34:34;95853.94;;;4.35;100.00
23363;BME280;11853;48.080;11.960;2023-02-04T04:37:00;95857.31;;;4.37;100.00
23363;BME280;11853;48.080;11.960;2023-02-04T04:39:25;95863.34;;;4.39;100.00
23363;BME280;11853;48.080;11.960;2023-02-04T04:41:51;95859.97;;;4.37;100.00
23363;BME280;11853;48.080;11.960;2023-02-04T04:44:16;95864.38;;;4.36;100.00
23363;BME280;11853;48.080;11.960;2023-02-04T04:46:42;95861.31;;;4.44;100.00
23363;BME280;11853;48.080;11.960;2023-02-04T04:49:08;95870.94;;;4.43;100.00
23363;BME280;11853;48.080;11.960;2023-02-04T04:51:33;95885.19;;;4.39;100.00
23363;BME280;11853;48.080;11.960;2023-02-04T04:53:59;95887.56;;;4.44;100.00
23363;BME280;11853;48.080;11.960;2023-02-04T04:56:25;95882.03;;;4.48;100.00
23363;BME280;11853;48.080;11.960;2023-02-04T04:58:50;95882.50;;;4.41;100.00
23363;BME280;11853;48.080;11.960;2023-02-04T05:01:16;95905.00;;;4.45;100.00
23363;BME280;11853;48.080;11.960;2023-02-04T05:03:42;95895.53;;;4.42;100.00
23363;BME280;11853;48.080;11.960;2023-02-04T05:06:08;95905.19;;;4.42;100.00
23363;BME280;11853;48.080;11.960;2023-02-04T05:08:41;95913.44;;;4.36;100.00
23363;BME280;11853;48.080;11.960;2023-02-04T05:11:06;95932.72;;;4.35;100.00
23363;BME280;11853;48.080;11.960;2023-02-04T05:13:32;95928.44;;;4.34;100.00
23363;BME280;11853;48.080;11.960;2023-02-04T05:15:57;95935.13;;;4.39;100.00
23363;BME280;11853;48.080;11.960;2023-02-04T05:18:23;95938.69;;;4.38;100.00
23363;BME280;11853;48.080;11.960;2023-02-04T05:20:48;95950.81;;;4.41;100.00
23363;BME280;11853;48.080;11.960;2023-02-04T05:23:14;95949.75;;;4.43;100.00
23363;BME280;11853;48.080;11.960;2023-02-04T05:25:41;95953.13;;;4.45;100.00
23363;BME280;11853;48.080;11.960;2023-02-04T05:28:06;95955.53;;;4.50;100.00
23363;BME280;11853;48.080;11.960;2023-02-04T05:30:33;95960.66;;;4.51;100.00
23363;BME280;11853;48.080;11.960;2023-02-04T05:32:58;95963.81;;;4.58;100.00
23363;BME280;11853;48.080;11.960;2023-02-04T05:35:24;95966.34;;;4.60;100.00
23363;BME280;11853;48.080;11.960;2023-02-04T05:37:49;95968.88;;;4.61;100.00
23363;BME280;11853;48.080;11.960;2023-02-04T05:40:15;95978.69;;;4.58;100.00
23363;BME280;11853;48.080;11.960;2023-02-04T05:42:41;95981.09;;;4.62;100.00
23363;BME280;11853;48.080;11.960;2023-02-04T05:45:12;95986.44;;;4.61;100.00
23363;BME280;11853;48.080;11.960;2023-02-04T05:47:38;96000.41;;;4.61;100.00
23363;BME280;11853;48.080;11.960;2023-02-04T05:50:04;96000.41;;;4.61;100.00
23363;BME280;11853;48.080;11.960;2023-02-04T05:52:30;96016.00;;;4.64;100.00
23363;BME280;11853;48.080;11.960;2023-02-04T05:54:56;96017.69;;;4.65;100.00
23363;BME280;11853;48.080;11.960;2023-02-04T05:57:21;96022.19;;;4.63;100.00
23363;BME280;11853;48.080;11.960;2023-02-04T05:59:47;96031.78;;;4.64;100.00
23363;BME280;11853;48.080;11.960;2023-02-04T06:02:12;96029.88;;;4.66;100.00
23363;BME280;11853;48.080;11.960;2023-02-04T06:04:38;96028.88;;;4.69;100.00
23363;BME280;11853;48.080;11.960;2023-02-04T06:07:03;96042.38;;;4.63;100.00
23363;BME280;11853;48.080;11.960;2023-02-04T06:09:29;96029.88;;;4.66;100.00
23363;BME280;11853;48.080;11.960;2023-02-04T06:11:54;96046.34;;;4.70;100.00
23363;BME280;11853;48.080;11.960;2023-02-04T06:14:21;96061.09;;;4.72;100.00
23363;BME280;11853;48.080;11.960;2023-02-04T06:16:47;96058.31;;;4.76;100.00
23363;BME280;11853;48.080;11.960;2023-02-04T06:19:12;96045.34;;;4.72;100.00
23363;BME280;11853;48.080;11.960;2023-02-04T06:21:38;96046.41;;;4.68;100.00
23363;BME280;11853;48.080;11.960;2023-02-04T06:24:04;96053.47;;;4.68;100.00
23363;BME280;11853;48.080;11.960;2023-02-04T06:26:30;96056.16;;;4.66;100.00
23363;BME280;11853;48.080;11.960;2023-02-04T06:28:55;96058.66;;;4.69;100.00
23363;BME280;11853;48.080;11.960;2023-02-04T06:31:21;96062.19;;;4.68;100.00
23363;BME280;11853;48.080;11.960;2023-02-04T06:33:46;96065.00;;;4.65;100.00
23363;BME280;11853;48.080;11.960;2023-02-04T06:36:11;96065.00;;;4.65;100.00
23363;BME280;11853;48.080;11.960;2023-02-04T06:38:37;96077.06;;;4.69;100.00
23363;BME280;11853;48.080;11.960;2023-02-04T06:41:03;96076.09;;;4.70;100.00
23363;BME280;11853;48.080;11.960;2023-02-04T06:43:28;96074.66;;;4.65;100.00
23363;BME280;11853;48.080;11.960;2023-02-04T06:45:54;96072.72;;;4.68;100.00
23363;BME280;11853;48.080;11.960;2023-02-04T06:48:20;96082.31;;;4.69;100.00
23363;BME280;11853;48.080;11.960;2023-02-04T06:50:45;96079.69;;;4.69;100.00
23363;BME280;11853;48.080;11.960;2023-02-04T06:53:11;96074.81;;;4.78;100.00
23363;BME280;11853;48.080;11.960;2023-02-04T06:55:36;96079.41;;;4.74;100.00
23363;BME280;11853;48.080;11.960;2023-02-04T06:58:02;96068.28;;;4.69;100.00
23363;BME280;11853;48.080;11.960;2023-02-04T07:00:27;96071.78;;;4.69;100.00
23363;BME280;11853;48.080;11.960;2023-02-04T07:02:55;96077.06;;;4.69;100.00
23363;BME280;11853;48.080;11.960;2023-02-04T07:05:22;96081.44;;;4.69;100.00
23363;BME280;11853;48.080;11.960;2023-02-04T07:07:47;96096.13;;;4.73;100.00
23363;BME280;11853;48.080;11.960;2023-02-04T07:10:13;96096.00;;;4.74;100.00
23363;BME280;11853;48.080;11.960;2023-02-04T07:12:38;96095.66;;;4.81;100.00
23363;BME280;11853;48.080;11.960;2023-02-04T07:15:04;96093.81;;;4.83;100.00
23363;BME280;11853;48.080;11.960;2023-02-04T07:17:30;96106.03;;;4.84;100.00
23363;BME280;11853;48.080;11.960;2023-02-04T07:19:55;96110.41;;;4.83;100.00
23363;BME280;11853;48.080;11.960;2023-02-04T07:22:21;96120.84;;;4.85;100.00
23363;BME280;11853;48.080;11.960;2023-02-04T07:24:46;96118.41;;;4.82;100.00
23363;BME280;11853;48.080;11.960;2023-02-04T07:27:11;96124.50;;;4.82;100.00
23363;BME280;11853;48.080;11.960;2023-02-04T07:29:37;96133.06;;;4.86;100.00
23363;BME280;11853;48.080;11.960;2023-02-04T07:32:02;96127.56;;;4.90;100.00
23363;BME280;11853;48.080;11.960;2023-02-04T07:34:28;96132.81;;;4.90;100.00
23363;BME280;11853;48.080;11.960;2023-02-04T07:36:54;96135.44;;;4.90;100.00
23363;BME280;11853;48.080;11.960;2023-02-04T07:39:19;96126.78;;;4.88;100.00
23363;BME280;11853;48.080;11.960;2023-02-04T07:41:44;96135.44;;;4.90;100.00
23363;BME280;11853;48.080;11.960;2023-02-04T07:44:10;96131.78;;;4.93;100.00
23363;BME280;11853;48.080;11.960;2023-02-04T07:46:35;96143.22;;;4.92;100.00
23363;BME280;11853;48.080;11.960;2023-02-04T07:49:01;96148.41;;;4.93;100.00
23363;BME280;11853;48.080;11.960;2023-02-04T07:51:27;96149.09;;;4.97;100.00
23363;BME280;11853;48.080;11.960;2023-02-04T07:53:53;96154.69;;;4.91;100.00
23363;BME280;11853;48.080;11.960;2023-02-04T07:56:19;96151.13;;;4.92;100.00
23363;BME280;11853;48.080;11.960;2023-02-04T07:58:44;96151.28;;;4.89;100.00
23363;BME280;11853;48.080;11.960;2023-02-04T08:01:10;96148.50;;;4.92;100.00
23363;BME280;11853;48.080;11.960;2023-02-04T08:03:35;96156.06;;;4.98;100.00
23363;BME280;11853;48.080;11.960;2023-02-04T08:06:01;96153.91;;;4.89;100.00
23363;BME280;11853;48.080;11.960;2023-02-04T08:08:27;96174.78;;;4.92;100.00
23363;BME280;11853;48.080;11.960;2023-02-04T08:10:52;96173.88;;;4.93;100.00
23363;BME280;11853;48.080;11.960;2023-02-04T08:13:18;96182.78;;;4.90;100.00
23363;BME280;11853;48.080;11.960;2023-02-04T08:15:43;96185.41;;;4.90;100.00
23363;BME280;11853;48.080;11.960;2023-02-04T08:18:09;96188.81;;;4.92;100.00
23363;BME280;11853;48.080;11.960;2023-02-04T08:20:34;96196.41;;;4.97;100.00
23363;BME280;11853;48.080;11.960;2023-02-04T08:23:00;96193.78;;;4.97;100.00
23363;BME280;11853;48.080;11.960;2023-02-04T08:25:25;96203.97;;;5.03;100.00
23363;BME280;11853;48.080;11.960;2023-02-04T08:27:53;96206.41;;;5.06;100.00
23363;BME280;11853;48.080;11.960;2023-02-04T08:30:18;96199.47;;;5.05;100.00
23363;BME280;11853;48.080;11.960;2023-02-04T08:32:44;96211.38;;;5.12;100.00
23363;BME280;11853;48.080;11.960;2023-02-04T08:35:10;96207.78;;;5.13;100.00
23363;BME280;11853;48.080;11.960;2023-02-04T08:37:37;96202.34;;;5.16;100.00
23363;BME280;11853;48.080;11.960;2023-02-04T08:40:02;96207.63;;;5.16;100.00
23363;BME280;11853;48.080;11.960;2023-02-04T08:42:28;96207.44;;;5.19;100.00
23363;BME280;11853;48.080;11.960;2023-02-04T08:44:54;96206.00;;;5.30;100.00
23363;BME280;11853;48.080;11.960;2023-02-04T08:47:19;96207.09;;;5.26;100.00
23363;BME280;11853;48.080;11.960;2023-02-04T08:49:45;96207.84;;;5.28;100.00
23363;BME280;11853;48.080;11.960;2023-02-04T08:52:10;96216.88;;;5.24;100.00
23363;BME280;11853;48.080;11.960;2023-02-04T08:54:36;96209.53;;;5.29;100.00
23363;BME280;11853;48.080;11.960;2023-02-04T08:57:02;96219.31;;;5.27;100.00
23363;BME280;11853;48.080;11.960;2023-02-04T08:59:28;96231.19;;;5.34;100.00
23363;BME280;11853;48.080;11.960;2023-02-04T09:01:54;96229.31;;;5.36;100.00
23363;BME280;11853;48.080;11.960;2023-02-04T09:04:21;96236.09;;;5.40;100.00
23363;BME280;11853;48.080;11.960;2023-02-04T09:06:48;96237.81;;;5.41;100.00
23363;BME280;11853;48.080;11.960;2023-02-04T09:09:14;96234.25;;;5.42;100.00
23363;BME280;11853;48.080;11.960;2023-02-04T09:11:40;96230.84;;;5.40;100.00
23363;BME280;11853;48.080;11.960;2023-02-04T09:14:05;96227.47;;;5.38;100.00
23363;BME280;11853;48.080;11.960;2023-02-04T09:16:31;96237.63;;;5.44;100.00
23363;BME280;11853;48.080;11.960;2023-02-04T09:18:57;96247.16;;;5.47;100.00
23363;BME280;11853;48.080;11.960;2023-02-04T09:21:23;96244.50;;;5.47;100.00
23363;BME280;11853;48.080;11.960;2023-02-04T09:23:49;96254.00;;;5.49;100.00
23363;BME280;11853;48.080;11.960;2023-02-04T09:26:14;96253.69;;;5.55;100.00
23363;BME280;11853;48.080;11.960;2023-02-04T09:28:40;96260.44;;;5.59;100.00
23363;BME280;11853;48.080;11.960;2023-02-04T09:31:05;96254.94;;;5.64;100.00
23363;BME280;11853;48.080;11.960;2023-02-04T09:33:31;96258.13;;;5.69;100.00
23363;BME280;11853;48.080;11.960;2023-02-04T09:35:57;96259.84;;;5.70;100.00
23363;BME280;11853;48.080;11.960;2023-02-04T09:38:23;96251.47;;;5.78;100.00
23363;BME280;11853;48.080;11.960;2023-02-04T09:40:55;96257.94;;;5.88;100.00
23363;BME280;11853;48.080;11.960;2023-02-04T09:43:23;96267.09;;;6.27;100.00
23363;BME280;11853;48.080;11.960;2023-02-04T09:45:53;96277.88;;;6.38;100.00
23363;BME280;11853;48.080;11.960;2023-02-04T09:48:23;96285.84;;;6.37;100.00
23363;BME280;11853;48.080;11.960;2023-02-04T09:50:50;96294.47;;;6.24;100.00
23363;BME280;11853;48.080;11.960;2023-02-04T09:53:20;96303.81;;;6.00;100.00
23363;BME280;11853;48.080;11.960;2023-02-04T09:55:49;96300.00;;;5.74;100.00
23363;BME280;11853;48.080;11.960;2023-02-04T09:58:19;96314.34;;;5.68;100.00
23363;BME280;11853;48.080;11.960;2023-02-04T10:00:47;96325.91;;;5.65;100.00
23363;BME280;11853;48.080;11.960;2023-02-04T10:03:18;96336.94;;;5.56;100.00
23363;BME280;11853;48.080;11.960;2023-02-04T10:05:47;96333.53;;;5.54;100.00
23363;BME280;11853;48.080;11.960;2023-02-04T10:08:25;96336.78;;;5.59;100.00
23363;BME280;11853;48.080;11.960;2023-02-04T10:10:52;96328.28;;;5.54;100.00
23363;BME280;11853;48.080;11.960;2023-02-04T10:13:25;96331.84;;;5.37;100.00
23363;BME280;11853;48.080;11.960;2023-02-04T10:15:54;96340.69;;;5.36;100.00
23363;BME280;11853;48.080;11.960;2023-02-04T10:18:26;96327.94;;;5.29;100.00
23363;BME280;11853;48.080;11.960;2023-02-04T10:21:15;96337.44;;;5.15;100.00
23363;BME280;11853;48.080;11.960;2023-02-04T10:23:43;96332.19;;;5.15;100.00
23363;BME280;11853;48.080;11.960;2023-02-04T10:26:11;96341.72;;;5.01;100.00
23363;BME280;11853;48.080;11.960;2023-02-04T10:28:37;96334.94;;;4.96;100.00
23363;BME280;11853;48.080;11.960;2023-02-04T10:31:05;96336.59;;;4.82;100.00
23363;BME280;11853;48.080;11.960;2023-02-04T10:33:33;96336.88;;;4.93;100.00
23363;BME280;11853;48.080;11.960;2023-02-04T10:36:03;96326.59;;;4.88;100.00
23363;BME280;11853;48.080;11.960;2023-02-04T10:38:29;96336.88;;;4.93;100.00
23363;BME280;11853;48.080;11.960;2023-02-04T10:41:04;96328.56;;;4.85;100.00
23363;BME280;11853;48.080;11.960;2023-02-04T10:43:30;96321.91;;;4.78;100.00
23363;BME280;11853;48.080;11.960;2023-02-04T10:45:58;96323.75;;;4.93;100.00
23363;BME280;11853;48.080;11.960;2023-02-04T10:48:24;96314.28;;;4.89;100.00
23363;BME280;11853;48.080;11.960;2023-02-04T10:50:50;96325.88;;;5.02;100.00
23363;BME280;11853;48.080;11.960;2023-02-04T10:53:19;96316.56;;;5.12;100.00
23363;BME280;11853;48.080;11.960;2023-02-04T10:56:04;96314.72;;;5.30;100.00
23363;BME280;11853;48.080;11.960;2023-02-04T10:58:30;96319.31;;;5.27;100.00
23363;BME280;11853;48.080;11.960;2023-02-04T11:00:57;96331.59;;;5.42;100.00
23363;BME280;11853;48.080;11.960;2023-02-04T11:05:49;96327.78;;;5.48;100.00
23363;BME280;11853;48.080;11.960;2023-02-04T11:08:35;96332.19;;;5.31;100.00
23363;BME280;11853;48.080;11.960;2023-02-04T11:11:07;96331.16;;;5.18;100.00
23363;BME280;11853;48.080;11.960;2023-02-04T11:18:56;96315.53;;;5.15;100.00
23363;BME280;11853;48.080;11.960;2023-02-04T11:26:39;96316.28;;;5.01;100.00
23363;BME280;11853;48.080;11.960;2023-02-04T11:39:35;96324.66;;;4.92;100.00
23363;BME280;11853;48.080;11.960;2023-02-04T11:42:01;96326.19;;;4.96;100.00
23363;BME280;11853;48.080;11.960;2023-02-04T11:44:27;96318.16;;;4.99;100.00
23363;BME280;11853;48.080;11.960;2023-02-04T11:46:54;96321.56;;;5.01;100.00
23363;BME280;11853;48.080;11.960;2023-02-04T11:49:22;96320.56;;;5.19;100.00
23363;BME280;11853;48.080;11.960;2023-02-04T11:51:48;96312.16;;;5.29;100.00
23363;BME280;11853;48.080;11.960;2023-02-04T11:54:15;96313.09;;;5.43;100.00
23363;BME280;11853;48.080;11.960;2023-02-04T11:56:45;96310.03;;;5.51;100.00
23363;BME280;11853;48.080;11.960;2023-02-04T11:59:12;96317.94;;;5.67;100.00
23363;BME280;11853;48.080;11.960;2023-02-04T12:16:28;96322.97;;;6.18;97.09
23363;BME280;11853;48.080;11.960;2023-02-04T12:19:04;96315.16;;;6.16;96.71
23363;BME280;11853;48.080;11.960;2023-02-04T12:21:29;96320.69;;;6.12;96.65
23363;BME280;11853;48.080;11.960;2023-02-04T12:23:55;96316.34;;;6.11;95.92
23363;BME280;11853;48.080;11.960;2023-02-04T12:26:20;96317.03;;;6.14;96.24
23363;BME280;11853;48.080;11.960;2023-02-04T12:28:46;96305.47;;;6.17;95.46
23363;BME280;11853;48.080;11.960;2023-02-04T12:31:11;96306.63;;;6.27;94.75
23363;BME280;11853;48.080;11.960;2023-02-04T12:33:37;96299.84;;;6.23;94.54
23363;BME280;11853;48.080;11.960;2023-02-04T12:36:03;96309.59;;;6.21;94.52
23363;BME280;11853;48.080;11.960;2023-02-04T12:38:29;96317.25;;;6.25;94.05
23363;BME280;11853;48.080;11.960;2023-02-04T12:40:54;96317.34;;;6.24;93.79
23363;BME280;11853;48.080;11.960;2023-02-04T12:43:20;96312.75;;;6.27;94.15
23363;BME280;11853;48.080;11.960;2023-02-04T12:45:45;96303.72;;;6.31;93.68
23363;BME280;11853;48.080;11.960;2023-02-04T12:48:14;96313.78;;;6.25;93.96
23363;BME280;11853;48.080;11.960;2023-02-04T12:50:39;96309.16;;;6.28;92.80
23363;BME280;11853;48.080;11.960;2023-02-04T12:53:05;96315.13;;;6.46;93.00
23363;BME280;11853;48.080;11.960;2023-02-04T12:55:34;96306.41;;;6.74;94.16
23363;BME280;11853;48.080;11.960;2023-02-04T12:58:00;96301.63;;;6.95;91.14
23363;BME280;11853;48.080;11.960;2023-02-04T13:00:26;96298.31;;;6.92;89.80
23363;BME280;11853;48.080;11.960;2023-02-04T13:02:53;96291.09;;;6.81;89.19
23363;BME280;11853;48.080;11.960;2023-02-04T13:05:23;96296.25;;;6.97;88.42
23363;BME280;11853;48.080;11.960;2023-02-04T13:07:49;96290.38;;;7.20;87.64
23363;BME280;11853;48.080;11.960;2023-02-04T13:10:16;96290.94;;;7.26;85.13
23363;BME280;11853;48.080;11.960;2023-02-04T13:12:42;96305.69;;;7.15;84.57
23363;BME280;11853;48.080;11.960;2023-02-04T13:15:10;96306.63;;;7.00;84.41
23363;BME280;11853;48.080;11.960;2023-02-04T13:17:36;96305.97;;;6.82;85.18
23363;BME280;11853;48.080;11.960;2023-02-04T13:20:03;96318.69;;;6.75;84.37
23363;BME280;11853;48.080;11.960;2023-02-04T13:22:29;96330.78;;;6.64;85.59
23363;BME280;11853;48.080;11.960;2023-02-04T13:24:55;96320.59;;;6.58;86.65